Time;durP1;ratioP1;P1;durP2;ratioP2;P2;SDS_P1;SDS_P2;PMS_P1;PMS_P2;Temp;Humidity;BMP_temperature;BMP_pressure;BME280_temperature;BME280_humidity;BME280_pressure;Samples;Min_cycle;Max_cycle;Signal;HPM_P1;HPM_P2
2022/08/18 00:01:13;;;;;;;10.13;7.30;;;22.70;65.10;;;;;;5078369;28;20535;-80
2022/08/18 00:03:43;;;;;;;9.20;6.87;;;22.70;65.00;;;;;;5079572;28;20484;-81
2022/08/18 00:06:27;;;;;;;10.70;8.00;;;22.70;65.00;;;;;;5081778;28;20453;-81
2022/08/18 00:08:57;;;;;;;9.30;7.03;;;22.70;65.00;;;;;;5086269;28;20953;-81
2022/08/18 00:11:26;;;;;;;11.30;8.20;;;22.70;65.00;;;;;;5069535;28;20458;-80
2022/08/18 00:13:56;;;;;;;11.63;7.90;;;22.60;65.00;;;;;;5081820;28;20808;-78
2022/08/18 00:16:24;;;;;;;10.23;8.17;;;22.60;65.10;;;;;;5078012;28;20480;-80
2022/08/18 00:18:51;;;;;;;11.17;7.33;;;22.70;65.10;;;;;;5077621;28;21226;-79
2022/08/18 00:21:20;;;;;;;12.10;7.80;;;22.60;65.10;;;;;;5081499;28;20966;-80
2022/08/18 00:23:48;;;;;;;13.50;8.00;;;22.60;65.20;;;;;;5079117;28;21226;-78
2022/08/18 00:26:16;;;;;;;9.00;7.07;;;22.70;65.30;;;;;;5078960;28;20473;-81
2022/08/18 00:28:44;;;;;;;8.97;6.90;;;22.70;65.50;;;;;;5067376;28;20474;-78
2022/08/18 00:31:13;;;;;;;13.53;7.73;;;22.70;65.90;;;;;;5078628;28;20486;-79
2022/08/18 00:33:42;;;;;;;12.23;7.63;;;22.70;66.00;;;;;;5075845;28;20465;-78
2022/08/18 00:36:10;;;;;;;10.87;7.40;;;22.70;66.20;;;;;;5078777;28;20460;-77
2022/08/18 00:38:39;;;;;;;8.63;6.93;;;22.80;66.30;;;;;;5080142;28;20453;-79
2022/08/18 00:41:08;;;;;;;13.30;6.80;;;22.90;66.30;;;;;;5077985;28;20469;-79
2022/08/18 00:43:41;;;;;;;11.23;7.00;;;23.00;66.40;;;;;;5074617;28;20574;-80
2022/08/18 00:46:12;;;;;;;16.40;7.03;;;23.00;66.20;;;;;;5078229;28;20473;-79
2022/08/18 00:48:41;;;;;;;12.27;6.83;;;23.10;66.20;;;;;;5061712;28;20466;-79
2022/08/18 00:51:20;;;;;;;16.10;7.40;;;23.20;66.20;;;;;;5089385;28;20847;-79
2022/08/18 00:53:57;;;;;;;10.13;7.10;;;23.20;66.20;;;;;;5078745;28;20457;-79
2022/08/18 00:56:32;;;;;;;11.27;7.60;;;23.30;66.10;;;;;;5082949;28;20478;-79
2022/08/18 00:59:06;;;;;;;10.93;7.60;;;23.40;66.10;;;;;;5080573;28;20468;-78
2022/08/18 01:01:35;;;;;;;11.87;7.33;;;23.40;66.10;;;;;;5079263;28;20474;-79
2022/08/18 01:04:09;;;;;;;9.73;6.70;;;23.40;66.10;;;;;;5062023;28;20874;-80
2022/08/18 01:06:41;;;;;;;11.10;7.67;;;23.40;66.20;;;;;;5079572;28;20506;-78
2022/08/18 01:09:10;;;;;;;11.33;8.23;;;23.40;66.20;;;;;;5080274;28;20465;-79
2022/08/18 01:11:38;;;;;;;10.00;7.93;;;23.40;66.30;;;;;;5076560;28;20473;-80
2022/08/18 01:14:09;;;;;;;10.70;7.70;;;23.40;66.40;;;;;;5062450;28;20488;-79
2022/08/18 01:22:27;;;;;;;10.47;7.80;;;23.50;66.50;;;;;;5020177;28;20476;-77
2022/08/18 01:27:46;;;;;;;11.40;7.50;;;23.60;66.50;;;;;;5075157;28;20455;-79
2022/08/18 01:30:18;;;;;;;10.40;7.60;;;23.60;66.50;;;;;;5062947;28;20461;-80
2022/08/18 01:32:46;;;;;;;11.20;8.00;;;23.60;66.60;;;;;;5075340;28;20453;-79
2022/08/18 01:35:17;;;;;;;12.20;8.07;;;23.60;66.60;;;;;;5080001;28;21324;-80
2022/08/18 01:37:46;;;;;;;10.97;7.53;;;23.60;66.60;;;;;;5076623;28;21162;-80
2022/08/18 01:40:30;;;;;;;11.70;8.30;;;23.60;66.70;;;;;;5082095;28;20458;-78
2022/08/18 01:43:18;;;;;;;10.73;8.70;;;23.60;66.70;;;;;;5073547;28;21073;-78
2022/08/18 01:45:46;;;;;;;12.30;7.80;;;23.60;66.80;;;;;;5075808;28;20479;-78
2022/08/18 01:48:15;;;;;;;10.37;7.63;;;23.70;66.80;;;;;;5076965;28;20840;-77
2022/08/18 01:50:44;;;;;;;11.50;7.40;;;23.70;66.80;;;;;;5080831;28;20464;-79
2022/08/18 01:53:12;;;;;;;11.40;8.13;;;23.70;66.90;;;;;;5081151;28;20520;-79
2022/08/18 01:55:44;;;;;;;9.17;7.83;;;23.70;66.90;;;;;;5079712;28;20511;-79
2022/08/18 01:58:12;;;;;;;13.70;7.97;;;23.70;66.90;;;;;;5077636;28;20541;-80
2022/08/18 02:00:41;;;;;;;10.77;7.87;;;23.70;67.00;;;;;;5059681;28;20453;-77
2022/08/18 02:03:13;;;;;;;10.77;7.27;;;23.70;67.00;;;;;;5077551;28;20447;-81
2022/08/18 02:05:46;;;;;;;12.47;7.30;;;23.70;67.10;;;;;;5084023;28;20479;-81
2022/08/18 02:08:15;;;;;;;9.50;6.63;;;23.70;67.00;;;;;;5075709;28;20469;-80
2022/08/18 02:10:44;;;;;;;11.37;7.10;;;23.70;67.00;;;;;;5077284;28;20465;-78
2022/08/18 02:13:12;;;;;;;10.00;7.33;;;23.70;67.10;;;;;;5074380;28;21020;-77
2022/08/18 02:15:41;;;;;;;10.30;6.73;;;23.70;67.10;;;;;;5078165;28;20480;-79
2022/08/18 02:18:14;;;;;;;8.60;6.60;;;23.70;67.00;;;;;;5074814;28;20461;-80
2022/08/18 02:20:58;;;;;;;10.53;6.43;;;23.70;67.00;;;;;;5075835;28;20581;-77
2022/08/18 02:23:26;;;;;;;9.40;6.77;;;23.70;67.00;;;;;;5070374;28;20474;-78
2022/08/18 02:25:56;;;;;;;10.10;7.10;;;23.70;67.00;;;;;;5059511;28;20487;-77
2022/08/18 02:28:23;;;;;;;11.33;6.30;;;23.70;67.00;;;;;;5075235;28;20462;-79
2022/08/18 02:30:57;;;;;;;9.23;6.37;;;23.70;67.00;;;;;;5077328;28;20480;-78
2022/08/18 02:33:25;;;;;;;9.97;6.87;;;23.70;67.00;;;;;;5077294;28;20465;-79
2022/08/18 02:35:54;;;;;;;9.33;6.90;;;23.70;67.00;;;;;;5075387;28;20482;-79
2022/08/18 02:38:22;;;;;;;11.10;7.30;;;23.60;67.10;;;;;;5076316;28;20876;-79
2022/08/18 02:40:56;;;;;;;12.70;7.63;;;23.60;67.20;;;;;;5075316;28;21087;-78
2022/08/18 02:43:24;;;;;;;11.10;6.73;;;23.60;67.30;;;;;;5076046;28;20465;-79
2022/08/18 02:45:53;;;;;;;8.53;6.50;;;23.50;67.40;;;;;;5075607;28;20488;-78
2022/08/18 02:48:22;;;;;;;8.90;6.40;;;23.60;67.50;;;;;;5076282;28;20472;-79
2022/08/18 02:50:50;;;;;;;8.57;6.60;;;23.60;67.60;;;;;;5061378;28;20460;-78
2022/08/18 02:53:21;;;;;;;10.20;7.23;;;23.60;67.60;;;;;;5076201;28;20465;-80
2022/08/18 02:55:49;;;;;;;9.23;6.30;;;23.70;67.60;;;;;;5076639;28;21001;-80
2022/08/18 02:58:19;;;;;;;9.87;6.90;;;23.70;67.60;;;;;;5056978;28;20453;-79
2022/08/18 03:00:47;;;;;;;10.80;6.50;;;23.70;67.60;;;;;;5073646;28;20851;-77
2022/08/18 03:03:15;;;;;;;9.20;6.27;;;23.70;67.60;;;;;;5075829;28;20459;-79
2022/08/18 03:05:43;;;;;;;8.07;6.23;;;23.70;67.60;;;;;;5073520;28;20990;-78
2022/08/18 03:08:11;;;;;;;9.50;7.07;;;23.70;67.70;;;;;;5072710;28;20470;-79
2022/08/18 03:10:39;;;;;;;9.33;6.47;;;23.70;67.60;;;;;;5079886;28;20461;-79
2022/08/18 03:13:08;;;;;;;9.40;6.63;;;23.60;67.70;;;;;;5077123;28;20461;-79
2022/08/18 03:15:37;;;;;;;11.03;6.70;;;23.60;67.70;;;;;;5079659;28;20486;-81
2022/08/18 03:18:05;;;;;;;9.80;6.97;;;23.60;67.70;;;;;;5084046;28;20464;-79
2022/08/18 03:20:35;;;;;;;10.30;6.70;;;23.60;67.80;;;;;;5083143;28;20827;-80
2022/08/18 03:23:07;;;;;;;9.83;6.50;;;23.60;67.90;;;;;;5084170;28;20549;-80
2022/08/18 03:25:44;;;;;;;11.07;6.97;;;23.60;67.90;;;;;;5085651;28;20587;-80
2022/08/18 03:28:12;;;;;;;9.40;6.80;;;23.60;68.00;;;;;;5082491;28;20466;-78
2022/08/18 03:30:42;;;;;;;8.93;7.00;;;23.70;68.10;;;;;;5075274;28;20468;-78
2022/08/18 03:33:10;;;;;;;10.00;6.60;;;23.70;68.20;;;;;;5076785;28;21223;-79
2022/08/18 03:35:39;;;;;;;10.10;7.60;;;23.70;68.40;;;;;;5080142;28;21173;-77
2022/08/18 03:38:08;;;;;;;10.07;6.40;;;23.70;68.50;;;;;;5080314;28;20457;-79
2022/08/18 03:40:36;;;;;;;11.00;7.70;;;23.70;68.60;;;;;;5082354;28;20455;-78
2022/08/18 03:43:05;;;;;;;8.77;6.60;;;23.60;68.70;;;;;;5079099;28;20814;-78
2022/08/18 03:45:55;;;;;;;11.33;7.20;;;23.60;68.80;;;;;;5076813;28;20510;-77
2022/08/18 03:48:24;;;;;;;9.90;6.87;;;23.60;69.00;;;;;;5075863;28;21027;-79
2022/08/18 03:50:52;;;;;;;11.23;6.67;;;23.60;69.00;;;;;;5077897;28;20482;-77
2022/08/18 03:53:19;;;;;;;10.87;7.27;;;23.60;69.20;;;;;;5080275;28;20451;-79
2022/08/18 03:55:47;;;;;;;8.60;7.10;;;23.60;69.30;;;;;;5079222;28;21032;-79
2022/08/18 03:58:15;;;;;;;14.40;7.77;;;23.50;69.40;;;;;;5080226;28;20831;-78
2022/08/18 04:00:43;;;;;;;11.70;7.30;;;23.50;69.60;;;;;;5079093;28;20473;-78
2022/08/18 04:03:12;;;;;;;9.47;7.00;;;23.50;69.70;;;;;;5080315;28;20506;-81
2022/08/18 04:05:40;;;;;;;9.60;7.07;;;23.50;69.80;;;;;;5097934;28;20489;-79
2022/08/18 04:08:08;;;;;;;8.60;6.57;;;23.50;69.90;;;;;;5080817;28;20469;-78
2022/08/18 04:10:36;;;;;;;9.30;7.13;;;23.50;69.90;;;;;;5079636;28;20460;-78
2022/08/18 04:13:05;;;;;;;11.23;7.90;;;23.40;70.00;;;;;;5080269;28;20496;-76
2022/08/18 04:15:33;;;;;;;12.07;8.20;;;23.40;70.10;;;;;;5085679;28;20480;-81
2022/08/18 04:18:03;;;;;;;11.43;8.10;;;23.40;70.20;;;;;;5080863;28;20449;-81
2022/08/18 04:20:32;;;;;;;17.30;7.40;;;23.40;70.20;;;;;;5081998;28;20955;-81
2022/08/18 04:23:01;;;;;;;10.10;8.17;;;23.40;70.30;;;;;;5084816;28;20470;-81
2022/08/18 04:25:31;;;;;;;10.43;7.97;;;23.30;70.40;;;;;;5081661;28;20489;-79
2022/08/18 04:28:02;;;;;;;14.60;8.13;;;23.30;70.50;;;;;;5080743;28;20450;-81
2022/08/18 04:30:30;;;;;;;9.77;7.13;;;23.30;70.60;;;;;;5081568;28;20542;-80
2022/08/18 04:32:58;;;;;;;11.30;8.10;;;23.30;70.60;;;;;;5070838;28;20493;-81
2022/08/18 04:35:27;;;;;;;11.27;8.27;;;23.20;70.60;;;;;;5080372;28;20487;-79
2022/08/18 04:37:57;;;;;;;10.50;8.00;;;23.20;70.60;;;;;;5080663;28;20446;-79
2022/08/18 04:40:25;;;;;;;11.77;7.97;;;23.20;70.80;;;;;;5078413;28;20468;-79
2022/08/18 04:42:54;;;;;;;14.10;8.10;;;23.20;70.90;;;;;;5076718;28;20458;-78
2022/08/18 04:45:22;;;;;;;11.43;7.80;;;23.20;71.00;;;;;;5080498;28;20480;-79
2022/08/18 04:47:50;;;;;;;9.80;8.10;;;23.20;71.20;;;;;;5083357;28;20464;-78
2022/08/18 04:50:19;;;;;;;10.40;8.13;;;23.20;71.30;;;;;;5080980;28;20466;-79
2022/08/18 04:55:34;;;;;;;15.40;8.80;;;23.10;71.60;;;;;;5075677;28;20480;-80
2022/08/18 04:58:02;;;;;;;10.60;7.10;;;23.10;71.70;;;;;;5064737;28;20465;-79
2022/08/18 05:00:30;;;;;;;14.07;7.23;;;23.10;71.80;;;;;;5062545;28;20468;-80
2022/08/18 05:02:57;;;;;;;10.17;7.67;;;23.00;72.00;;;;;;5089207;28;20462;-79
2022/08/18 05:05:26;;;;;;;10.40;7.93;;;23.00;72.10;;;;;;5062609;28;20478;-78
2022/08/18 05:07:55;;;;;;;12.40;8.07;;;23.00;72.20;;;;;;5078173;28;20473;-78
2022/08/18 05:10:23;;;;;;;10.23;7.77;;;23.00;72.30;;;;;;5063333;28;20456;-80
2022/08/18 05:12:52;;;;;;;10.33;7.70;;;23.00;72.40;;;;;;5082618;28;20957;-79
2022/08/18 05:15:20;;;;;;;10.03;7.23;;;23.00;72.50;;;;;;5077973;28;21101;-80
2022/08/18 05:17:48;;;;;;;11.67;7.83;;;23.00;72.50;;;;;;5081157;28;20463;-80
2022/08/18 05:20:18;;;;;;;9.60;7.33;;;23.00;72.60;;;;;;5079100;28;20466;-80
2022/08/18 05:22:46;;;;;;;11.00;8.00;;;23.00;72.70;;;;;;5073341;28;20470;-80
2022/08/18 05:25:14;;;;;;;10.20;7.87;;;23.00;72.70;;;;;;5078037;28;20946;-80
2022/08/18 05:27:43;;;;;;;8.43;7.00;;;23.00;72.70;;;;;;5072674;28;20455;-80
2022/08/18 05:30:14;;;;;;;11.27;8.30;;;23.00;72.70;;;;;;5082194;28;20467;-80
2022/08/18 05:32:45;;;;;;;13.30;7.30;;;23.00;72.80;;;;;;5074296;28;20445;-79
2022/08/18 05:35:21;;;;;;;11.00;7.40;;;23.00;72.80;;;;;;5079842;28;21085;-78
2022/08/18 05:38:05;;;;;;;11.90;7.93;;;23.00;72.80;;;;;;5074684;28;20465;-80
2022/08/18 05:40:35;;;;;;;11.10;7.67;;;23.00;72.90;;;;;;5076524;28;20477;-80
2022/08/18 05:43:05;;;;;;;13.77;8.90;;;23.00;72.90;;;;;;5080011;28;20540;-79
2022/08/18 05:45:35;;;;;;;9.40;7.83;;;23.00;73.00;;;;;;5079462;28;20470;-80
2022/08/18 05:48:03;;;;;;;9.97;8.33;;;23.00;73.10;;;;;;5077395;28;20472;-78
2022/08/18 05:50:35;;;;;;;12.90;8.23;;;23.00;73.10;;;;;;5072015;28;21294;-79
2022/08/18 05:53:07;;;;;;;10.10;7.67;;;23.00;73.10;;;;;;5078654;28;20554;-78
2022/08/18 05:58:37;;;;;;;15.40;8.00;;;23.00;73.20;;;;;;5074322;28;20473;-77
2022/08/18 06:01:11;;;;;;;10.23;8.20;;;23.00;73.30;;;;;;5075300;28;20477;-79
2022/08/18 06:03:47;;;;;;;11.90;8.43;;;23.00;73.30;;;;;;5075584;28;20464;-79
2022/08/18 06:06:18;;;;;;;13.33;8.10;;;23.00;73.20;;;;;;5078416;28;20912;-80
2022/08/18 06:08:52;;;;;;;11.00;7.57;;;23.00;73.30;;;;;;5073426;28;20464;-78
2022/08/18 06:11:20;;;;;;;10.53;7.90;;;23.10;73.20;;;;;;5080845;28;20458;-80
2022/08/18 06:13:50;;;;;;;11.40;8.50;;;23.10;73.20;;;;;;5075262;28;21318;-80
2022/08/18 06:16:47;;;;;;;11.63;8.67;;;23.10;73.20;;;;;;5074925;28;20469;-79
2022/08/18 06:19:29;;;;;;;12.10;8.90;;;23.10;73.20;;;;;;5075506;28;20553;-80
2022/08/18 06:22:07;;;;;;;10.97;7.90;;;23.10;73.20;;;;;;5072369;28;20484;-80
2022/08/18 06:24:42;;;;;;;10.93;9.00;;;23.10;73.20;;;;;;5060021;28;21184;-80
2022/08/18 06:27:17;;;;;;;11.60;8.87;;;23.10;73.20;;;;;;5074234;28;20481;-80
2022/08/18 06:29:55;;;;;;;10.97;8.90;;;23.20;73.20;;;;;;5071442;28;20466;-80
2022/08/18 06:32:40;;;;;;;10.83;8.50;;;23.10;73.30;;;;;;5070905;28;21097;-80
2022/08/18 06:35:18;;;;;;;11.20;8.60;;;23.10;73.30;;;;;;5071949;28;20573;-78
2022/08/18 06:40:38;;;;;;;11.37;9.23;;;23.10;73.20;;;;;;5072080;28;20509;-78
2022/08/18 06:43:12;;;;;;;13.03;9.43;;;23.10;73.20;;;;;;5069124;28;20456;-80
2022/08/18 06:45:43;;;;;;;12.77;10.53;;;23.10;73.20;;;;;;5055034;28;20474;-79
2022/08/18 06:48:19;;;;;;;12.87;10.53;;;23.00;73.40;;;;;;5077460;28;20475;-79
2022/08/18 06:50:51;;;;;;;14.40;10.87;;;23.10;73.30;;;;;;5078627;28;20823;-78
2022/08/18 06:53:20;;;;;;;13.30;10.83;;;23.10;73.30;;;;;;5073589;28;20472;-77
2022/08/18 06:55:55;;;;;;;13.00;10.30;;;23.10;73.40;;;;;;5077341;28;20496;-79
2022/08/18 06:58:28;;;;;;;13.80;11.90;;;23.10;73.40;;;;;;5081041;28;20477;-78
2022/08/18 07:01:00;;;;;;;14.37;11.77;;;23.10;73.30;;;;;;5076602;28;20469;-78
2022/08/18 07:03:45;;;;;;;15.17;10.43;;;23.20;73.40;;;;;;5070420;28;21133;-78
2022/08/18 07:06:27;;;;;;;13.47;10.33;;;23.20;73.40;;;;;;5075978;28;21140;-79
2022/08/18 07:09:21;;;;;;;15.07;11.63;;;23.20;73.40;;;;;;5076803;28;20985;-79
2022/08/18 07:12:01;;;;;;;13.70;10.23;;;23.20;73.40;;;;;;5077165;28;20805;-78
2022/08/18 07:14:29;;;;;;;15.00;11.77;;;23.20;73.40;;;;;;5077000;28;20485;-79
2022/08/18 07:17:08;;;;;;;15.73;12.60;;;23.20;73.30;;;;;;5076291;28;20501;-79
2022/08/18 07:19:36;;;;;;;16.50;11.80;;;23.20;73.40;;;;;;5071657;28;20744;-78
2022/08/18 07:22:07;;;;;;;15.40;13.80;;;23.20;73.30;;;;;;5074191;28;20470;-78
2022/08/18 07:24:41;;;;;;;16.93;12.27;;;23.20;73.30;;;;;;5076704;28;20481;-79
2022/08/18 07:27:11;;;;;;;17.20;12.37;;;23.20;73.40;;;;;;5072222;28;20484;-78
2022/08/18 07:29:58;;;;;;;14.70;12.50;;;23.30;73.40;;;;;;5073510;28;20451;-79
2022/08/18 07:32:31;;;;;;;14.20;12.30;;;23.30;73.40;;;;;;5074752;28;20470;-79
2022/08/18 07:35:02;;;;;;;17.87;13.23;;;23.30;73.40;;;;;;5074063;28;20482;-78
2022/08/18 07:37:35;;;;;;;15.70;12.60;;;23.30;73.50;;;;;;5076567;28;20448;-77
2022/08/18 07:40:19;;;;;;;14.07;11.47;;;23.30;73.50;;;;;;5075574;28;20457;-78
2022/08/18 07:42:52;;;;;;;18.63;12.77;;;23.30;73.60;;;;;;5076337;28;20540;-79
2022/08/18 07:45:33;;;;;;;17.40;12.70;;;23.30;73.60;;;;;;5069932;28;20480;-79
2022/08/18 07:48:07;;;;;;;17.03;12.70;;;23.30;73.60;;;;;;5074380;28;20487;-78
2022/08/18 07:51:01;;;;;;;17.53;12.67;;;23.30;73.60;;;;;;5070999;28;20493;-79
2022/08/18 07:53:46;;;;;;;17.67;15.07;;;23.30;73.60;;;;;;5072423;28;20460;-78
2022/08/18 07:56:36;;;;;;;14.90;12.80;;;23.30;73.50;;;;;;5070534;28;20711;-79
2022/08/18 07:59:12;;;;;;;13.33;11.20;;;23.30;73.60;;;;;;5060607;28;20552;-79
2022/08/18 08:01:48;;;;;;;13.33;11.00;;;23.30;73.70;;;;;;5054818;28;20833;-78
2022/08/18 08:04:28;;;;;;;13.60;11.23;;;23.30;73.70;;;;;;5055299;28;20473;-78
2022/08/18 08:07:03;;;;;;;12.20;10.27;;;23.40;73.80;;;;;;5074411;28;20492;-78
2022/08/18 08:09:58;;;;;;;15.27;11.63;;;23.40;73.80;;;;;;5074412;28;20541;-79
2022/08/18 08:12:35;;;;;;;15.80;12.20;;;23.40;73.80;;;;;;5072226;28;20443;-77
2022/08/18 08:15:13;;;;;;;15.87;11.83;;;23.40;73.90;;;;;;5074345;28;21183;-77
2022/08/18 08:17:52;;;;;;;16.60;12.07;;;23.50;73.90;;;;;;5073270;28;20475;-79
2022/08/18 08:20:27;;;;;;;15.37;12.70;;;23.50;74.00;;;;;;5076023;28;20555;-78
2022/08/18 08:23:16;;;;;;;15.57;12.20;;;23.60;73.90;;;;;;5071844;28;20485;-78
2022/08/18 08:25:55;;;;;;;18.27;11.70;;;23.60;73.80;;;;;;5073702;28;20481;-79
2022/08/18 08:28:33;;;;;;;15.37;12.83;;;23.60;73.80;;;;;;5075413;28;20467;-79
2022/08/18 08:31:08;;;;;;;13.63;11.47;;;23.60;73.80;;;;;;5075787;28;20482;-79
2022/08/18 08:34:02;;;;;;;14.07;11.97;;;23.60;73.70;;;;;;5077714;28;20470;-78
2022/08/18 08:36:38;;;;;;;15.23;11.27;;;23.70;73.70;;;;;;5077272;28;20541;-78
2022/08/18 08:39:11;;;;;;;16.30;13.10;;;23.70;73.50;;;;;;5076495;28;20472;-78
2022/08/18 08:41:45;;;;;;;14.63;11.80;;;23.70;73.50;;;;;;5075484;28;20461;-78
2022/08/18 08:44:21;;;;;;;15.90;11.83;;;23.60;73.50;;;;;;5075769;28;20495;-79
2022/08/18 08:46:54;;;;;;;14.63;12.43;;;23.70;73.60;;;;;;5082140;28;21213;-78
2022/08/18 08:49:35;;;;;;;17.80;13.37;;;23.60;73.50;;;;;;5079209;28;20470;-78
2022/08/18 08:52:11;;;;;;;14.40;12.80;;;23.60;73.60;;;;;;5065442;28;20479;-80
2022/08/18 08:54:46;;;;;;;15.83;12.90;;;23.60;73.60;;;;;;5083084;28;21103;-79
2022/08/18 08:57:15;;;;;;;15.43;12.70;;;23.60;73.60;;;;;;5082404;28;20458;-79
2022/08/18 08:59:49;;;;;;;17.70;13.13;;;23.60;73.70;;;;;;5081899;28;20998;-80
2022/08/18 09:02:40;;;;;;;17.43;13.27;;;23.60;73.70;;;;;;5084468;28;20485;-79
2022/08/18 09:05:19;;;;;;;18.30;13.03;;;23.60;73.70;;;;;;5081474;28;20560;-80
2022/08/18 09:08:03;;;;;;;24.67;13.57;;;23.60;73.80;;;;;;5082106;28;20473;-80
2022/08/18 09:10:51;;;;;;;16.53;12.37;;;23.60;73.80;;;;;;5080869;28;20482;-78
2022/08/18 09:13:41;;;;;;;17.90;13.70;;;23.60;73.70;;;;;;5088091;28;20447;-80
2022/08/18 09:16:19;;;;;;;17.43;14.60;;;23.60;73.70;;;;;;5073206;28;20851;-79
2022/08/18 09:19:03;;;;;;;17.23;13.90;;;23.60;73.80;;;;;;5084060;28;20797;-79
2022/08/18 09:21:40;;;;;;;17.57;14.20;;;23.60;73.80;;;;;;5084573;28;20455;-78
2022/08/18 09:24:19;;;;;;;25.43;14.87;;;23.60;73.70;;;;;;5085924;28;20473;-78
2022/08/18 09:26:52;;;;;;;20.50;15.10;;;23.60;73.70;;;;;;5086200;28;20457;-78
2022/08/18 09:29:25;;;;;;;17.40;13.67;;;23.60;73.70;;;;;;5082100;28;20496;-80
2022/08/18 09:32:31;;;;;;;16.30;14.17;;;23.60;73.70;;;;;;5080546;28;20479;-80
2022/08/18 09:35:11;;;;;;;18.07;13.87;;;23.60;73.70;;;;;;5083733;28;20490;-79
2022/08/18 09:41:30;;;;;;;22.03;15.90;;;23.60;73.60;;;;;;5064010;28;20458;-80
2022/08/18 09:43:38;;;;;;;16.93;14.63;;;23.50;73.60;;;;;;5065298;28;20461;-79
2022/08/18 09:46:07;;;;;;;16.57;13.13;;;23.50;73.60;;;;;;5075617;28;20492;-79
2022/08/18 09:48:40;;;;;;;18.27;14.07;;;23.50;73.70;;;;;;5080036;28;20483;-79
2022/08/18 09:51:37;;;;;;;16.70;14.50;;;23.50;73.80;;;;;;5076401;28;20455;-79
2022/08/18 09:54:16;;;;;;;17.47;13.70;;;23.60;73.80;;;;;;5083115;28;20483;-79
2022/08/18 09:57:25;;;;;;;17.37;14.40;;;23.60;73.60;;;;;;5079676;28;20450;-79
2022/08/18 10:00:26;;;;;;;18.93;14.43;;;23.60;73.60;;;;;;5081333;28;20486;-80
2022/08/18 10:03:13;;;;;;;18.00;14.00;;;23.60;73.70;;;;;;5082216;28;20866;-78
2022/08/18 10:06:12;;;;;;;24.00;14.00;;;23.60;73.70;;;;;;5077786;28;20478;-80
2022/08/18 10:09:15;;;;;;;15.80;13.93;;;23.70;73.60;;;;;;5062194;28;20485;-80
2022/08/18 10:12:22;;;;;;;19.97;15.20;;;23.70;73.60;;;;;;5071563;28;20470;-80
2022/08/18 10:15:20;;;;;;;19.53;14.87;;;23.70;73.30;;;;;;5088520;28;20476;-80
2022/08/18 10:18:37;;;;;;;17.80;14.50;;;23.70;73.30;;;;;;5080886;28;20466;-79
2022/08/18 10:21:14;;;;;;;18.70;15.37;;;23.70;73.30;;;;;;5060551;28;20624;-79
2022/08/18 10:24:16;;;;;;;18.73;14.80;;;23.70;73.10;;;;;;5075914;28;20462;-80
2022/08/18 10:27:07;;;;;;;17.00;14.00;;;23.70;73.00;;;;;;5081470;28;21174;-78
2022/08/18 10:29:56;;;;;;;21.83;14.40;;;23.80;73.00;;;;;;5065663;28;20489;-79
2022/08/18 10:32:45;;;;;;;19.50;15.10;;;23.80;73.10;;;;;;5078129;28;20497;-80
2022/08/18 10:35:57;;;;;;;23.00;17.30;;;23.80;73.10;;;;;;5077824;28;20471;-80
2022/08/18 10:38:37;;;;;;;20.80;16.07;;;23.80;73.20;;;;;;5075755;28;20462;-79
2022/08/18 10:41:13;;;;;;;19.40;14.20;;;23.80;73.10;;;;;;5080312;28;20461;-79
2022/08/18 10:43:46;;;;;;;17.03;15.00;;;23.80;73.30;;;;;;5079314;28;20461;-80
2022/08/18 10:46:26;;;;;;;18.93;15.33;;;23.90;73.50;;;;;;5081241;28;20934;-80
2022/08/18 10:49:06;;;;;;;19.80;17.63;;;23.90;73.40;;;;;;5065117;28;20459;-81
2022/08/18 10:51:52;;;;;;;20.47;17.87;;;24.00;73.40;;;;;;5077391;28;20453;-78
2022/08/18 10:54:36;;;;;;;23.77;18.80;;;24.00;73.30;;;;;;5083156;28;21189;-78
2022/08/18 10:57:32;;;;;;;22.70;19.37;;;24.00;73.40;;;;;;5075485;28;20465;-80
2022/08/18 11:00:05;;;;;;;21.33;18.37;;;24.00;73.60;;;;;;5077713;28;20470;-79
2022/08/18 11:02:52;;;;;;;21.53;19.00;;;24.00;73.70;;;;;;5076631;28;20486;-77
2022/08/18 11:05:30;;;;;;;27.67;21.03;;;24.10;74.00;;;;;;5076781;28;21155;-80
2022/08/18 11:08:03;;;;;;;24.43;19.73;;;24.10;74.00;;;;;;5075984;28;20463;-80
2022/08/18 11:10:49;;;;;;;24.90;21.27;;;24.20;73.90;;;;;;5063962;28;20469;-80
2022/08/18 11:13:50;;;;;;;19.23;17.23;;;24.30;73.80;;;;;;5076643;28;20467;-80
2022/08/18 11:16:32;;;;;;;22.63;19.50;;;24.30;73.50;;;;;;5058795;28;20582;-80
2022/08/18 11:19:08;;;;;;;21.53;18.47;;;24.30;73.30;;;;;;5082944;28;20472;-79
2022/08/18 11:21:42;;;;;;;24.20;20.10;;;24.30;73.20;;;;;;5061644;28;20490;-79
2022/08/18 11:24:16;;;;;;;22.67;18.87;;;24.30;73.00;;;;;;5080574;28;20510;-80
2022/08/18 11:26:47;;;;;;;19.80;16.57;;;24.30;73.00;;;;;;5069943;28;20461;-78
2022/08/18 11:29:31;;;;;;;23.80;17.70;;;24.30;73.20;;;;;;5079282;28;20517;-78
2022/08/18 11:32:05;;;;;;;19.97;16.80;;;24.40;73.20;;;;;;5076250;28;20480;-80
2022/08/18 11:34:41;;;;;;;21.93;17.40;;;24.40;73.20;;;;;;5078072;28;20512;-80
2022/08/18 11:37:26;;;;;;;22.10;18.20;;;24.50;72.90;;;;;;5077361;28;20479;-80
2022/08/18 11:39:59;;;;;;;23.37;17.80;;;24.50;72.70;;;;;;5079274;28;20820;-78
2022/08/18 11:42:32;;;;;;;20.83;17.07;;;24.50;72.60;;;;;;5075217;28;20451;-80
2022/08/18 11:45:12;;;;;;;20.43;16.73;;;24.60;72.60;;;;;;5081273;28;20474;-80
2022/08/18 11:48:01;;;;;;;22.80;17.60;;;24.60;72.50;;;;;;5078103;28;20521;-79
2022/08/18 11:50:31;;;;;;;22.70;18.50;;;24.60;72.50;;;;;;5078002;28;20522;-78
2022/08/18 11:53:17;;;;;;;23.33;18.23;;;24.70;72.30;;;;;;5078621;28;21126;-80
2022/08/18 11:56:07;;;;;;;18.80;16.90;;;24.70;72.10;;;;;;5078777;28;20475;-80
2022/08/18 11:58:44;;;;;;;19.83;16.20;;;24.70;72.00;;;;;;5084660;28;20986;-80
2022/08/18 12:01:37;;;;;;;18.03;15.60;;;24.70;71.70;;;;;;5080314;28;20487;-81
2022/08/18 12:04:21;;;;;;;21.20;17.87;;;24.70;71.70;;;;;;5078645;28;20473;-80
2022/08/18 12:06:59;;;;;;;22.50;18.00;;;24.70;71.70;;;;;;5081557;28;20974;-78
2022/08/18 12:09:38;;;;;;;23.40;19.70;;;24.80;71.70;;;;;;5080238;28;20483;-79
2022/08/18 12:12:29;;;;;;;20.10;17.53;;;24.70;71.70;;;;;;5080538;28;20471;-80
2022/08/18 12:15:03;;;;;;;19.57;16.60;;;24.70;71.80;;;;;;5073251;28;20487;-80
2022/08/18 12:17:46;;;;;;;20.80;18.20;;;24.80;71.90;;;;;;5076793;28;20455;-77
2022/08/18 12:20:21;;;;;;;24.10;18.80;;;24.80;71.80;;;;;;5094356;28;20476;-79
2022/08/18 12:22:50;;;;;;;20.53;17.83;;;24.90;71.90;;;;;;5077263;28;20562;-79
2022/08/18 12:25:20;;;;;;;22.30;20.00;;;24.90;71.80;;;;;;5083034;28;20555;-78
2022/08/18 12:28:08;;;;;;;22.57;19.20;;;25.00;71.80;;;;;;5076450;28;21196;-81
2022/08/18 12:30:38;;;;;;;21.27;18.17;;;25.00;71.60;;;;;;5076424;28;20472;-79
2022/08/18 12:33:10;;;;;;;24.00;20.10;;;25.10;71.60;;;;;;5075354;28;20458;-80
2022/08/18 12:35:58;;;;;;;22.10;16.73;;;25.20;71.50;;;;;;5072668;28;20534;-80
2022/08/18 12:38:27;;;;;;;18.90;16.73;;;25.20;71.30;;;;;;5077659;28;20865;-79
2022/08/18 12:40:55;;;;;;;18.73;16.07;;;25.30;71.20;;;;;;5077458;28;20453;-78
2022/08/18 12:43:23;;;;;;;17.67;14.93;;;25.30;71.00;;;;;;5062287;28;20463;-80
2022/08/18 12:45:59;;;;;;;18.93;14.53;;;25.30;70.80;;;;;;5073895;28;20530;-79
2022/08/18 12:48:30;;;;;;;15.17;13.57;;;25.30;70.70;;;;;;5073329;28;20449;-80
2022/08/18 12:50:59;;;;;;;16.83;11.07;;;25.40;70.60;;;;;;5076729;28;20478;-80
2022/08/18 12:53:32;;;;;;;13.60;10.77;;;25.40;69.70;;;;;;5079859;28;21037;-79
2022/08/18 12:56:23;;;;;;;15.40;11.40;;;25.50;69.50;;;;;;5079713;28;20457;-80
2022/08/18 12:58:52;;;;;;;16.13;12.50;;;25.40;68.70;;;;;;5083828;28;20453;-80
2022/08/18 13:01:21;;;;;;;13.30;11.30;;;25.50;69.00;;;;;;5081114;28;20469;-79
2022/08/18 13:03:54;;;;;;;14.80;12.13;;;25.50;68.40;;;;;;5076475;28;20488;-79
2022/08/18 13:06:44;;;;;;;23.33;12.63;;;25.50;68.30;;;;;;5079135;28;21023;-78
2022/08/18 13:09:29;;;;;;;13.10;10.90;;;25.60;68.40;;;;;;5077808;28;20556;-78
2022/08/18 13:12:18;;;;;;;14.27;12.80;;;25.60;68.40;;;;;;5081422;28;20470;-77
2022/08/18 13:14:48;;;;;;;13.53;12.00;;;25.70;68.00;;;;;;5079576;28;20481;-80
2022/08/18 13:17:19;;;;;;;13.03;11.73;;;25.70;68.10;;;;;;5080176;28;20592;-79
2022/08/18 13:20:04;;;;;;;13.07;11.27;;;25.70;68.00;;;;;;5061657;28;20548;-77
2022/08/18 13:22:32;;;;;;;13.57;11.00;;;25.80;67.90;;;;;;5060733;28;20990;-79
2022/08/18 13:25:02;;;;;;;14.73;11.63;;;25.80;67.90;;;;;;5078719;28;20469;-80
2022/08/18 13:27:32;;;;;;;13.10;11.70;;;25.90;67.60;;;;;;5078938;28;20544;-79
2022/08/18 13:30:06;;;;;;;12.03;10.27;;;26.00;67.50;;;;;;5076242;28;20463;-80
2022/08/18 13:32:54;;;;;;;14.27;10.90;;;26.00;67.20;;;;;;5076774;28;20462;-79
2022/08/18 13:35:30;;;;;;;13.77;11.23;;;26.00;67.20;;;;;;5082643;28;20472;-78